TAF KJFK
AMD KJFK 082023Z 0820/0924 02007KT P6SM FEW030 SCT040 FM082300 34010KT P6SM BKN040 OVC070 FM090700 31016G20KT P6SM SKC FM091100 32012KT P6SM SKC FM091900 29010KT P6SM FEW250=
METAR KJFK
SPECI KJFK 082245Z 02009KT 10SM FEW019 BKN032 BKN060 BKN140 OVC250 04/01 A2988 RMK AO2
KJFK 082151Z 02007KT 10SM BKN019 BKN047 BKN250 04/01 A2989 RMK AO2 SLP120 T00440006 ?
SPECI KJFK 082149Z 02008KT 10SM BKN019 BKN047 BKN250 04/01 A2989 RMK AO2 ?
KJFK 082051Z 35005KT 10SM FEW023 BKN042 BKN160 BKN250 05/01 A2988 RMK AO2 SLP119 T00500006 56021 ?
KJFK 081951Z 36006KT 10SM FEW028 BKN040 BKN160 BKN250 06/01 A2989 RMK AO2 SLP120 T00560006 ?
WC KJFK
WS KJFK
WV KJFK